createdAt,value
2019-05-21T00:00:18.849Z,80.47
2019-05-21T00:02:47.024Z,80.60
2019-05-21T00:05:15.223Z,80.51
2019-05-21T00:07:43.465Z,80.71
2019-05-21T00:10:11.801Z,80.56
2019-05-21T00:12:39.990Z,80.72
2019-05-21T00:15:08.277Z,80.81
2019-05-21T00:17:36.484Z,80.66
2019-05-21T00:20:04.881Z,80.72
2019-05-21T00:22:33.185Z,80.88
2019-05-21T00:25:01.417Z,81.04
2019-05-21T00:27:29.760Z,81.23
2019-05-21T00:30:33.657Z,81.61
2019-05-21T00:33:37.285Z,81.78
2019-05-21T00:36:41.454Z,81.69
2019-05-21T00:39:45.584Z,81.76
2019-05-21T00:42:18.554Z,82.26
2019-05-21T00:44:46.821Z,81.94
2019-05-21T00:47:15.167Z,82.38
2019-05-21T00:49:43.370Z,82.80
2019-05-21T00:52:11.676Z,82.70
2019-05-21T00:54:39.964Z,82.50
2019-05-21T00:57:08.191Z,82.62
2019-05-21T00:59:36.437Z,82.81
2019-05-21T01:02:04.647Z,82.69
2019-05-21T01:04:32.885Z,82.66
2019-05-21T01:07:04.758Z,82.82
2019-05-21T01:09:32.952Z,82.59
2019-05-21T01:12:04.111Z,82.92
2019-05-21T01:14:32.295Z,82.61
2019-05-21T01:17:00.498Z,82.83
2019-05-21T01:19:30.990Z,82.74
2019-05-21T01:21:59.173Z,82.81
2019-05-21T01:24:27.351Z,82.83
2019-05-21T01:26:55.571Z,82.96
2019-05-21T01:29:23.789Z,82.98
2019-05-21T01:31:51.986Z,82.88
2019-05-21T01:34:20.212Z,82.91
2019-05-21T01:36:48.500Z,83.50
2019-05-21T01:39:16.695Z,83.17
2019-05-21T01:41:45.009Z,83.24
2019-05-21T01:44:13.222Z,83.59
2019-05-21T01:46:41.466Z,83.45
2019-05-21T01:49:09.663Z,83.28
2019-05-21T01:51:37.906Z,83.46
2019-05-21T01:54:06.100Z,83.91
2019-05-21T01:56:34.320Z,83.62
2019-05-21T01:59:02.662Z,83.61
2019-05-21T02:01:30.865Z,83.70
2019-05-21T02:03:59.094Z,84.08
2019-05-21T02:06:27.281Z,83.85
2019-05-21T02:08:55.498Z,83.99
2019-05-21T02:11:23.758Z,83.98
2019-05-21T02:13:51.979Z,84.06
2019-05-21T02:16:20.331Z,84.01
2019-05-21T02:18:48.566Z,83.99
2019-05-21T02:21:16.767Z,84.35
2019-05-21T02:23:44.967Z,84.38
2019-05-21T02:26:13.177Z,84.59
2019-05-21T02:28:41.442Z,84.52
2019-05-21T02:31:09.620Z,84.66
2019-05-21T02:33:37.858Z,84.56
2019-05-21T02:36:06.073Z,84.71
2019-05-21T02:38:34.253Z,84.61
2019-05-21T02:41:03.481Z,84.78
2019-05-21T02:43:31.691Z,84.94
2019-05-21T02:45:59.913Z,84.70
2019-05-21T02:48:28.139Z,84.69
2019-05-21T02:50:56.362Z,85.30
2019-05-21T02:53:24.590Z,85.06
2019-05-21T02:55:52.853Z,84.96
2019-05-21T02:58:21.088Z,85.12
2019-05-21T03:00:49.280Z,85.04
2019-05-21T03:03:17.505Z,85.30
2019-05-21T03:05:45.733Z,84.94
2019-05-21T03:08:13.942Z,85.02
2019-05-21T03:10:42.170Z,85.17
2019-05-21T03:13:10.450Z,84.83
2019-05-21T03:15:38.751Z,84.74
2019-05-21T03:18:07.092Z,84.79
2019-05-21T03:20:35.369Z,84.72
2019-05-21T03:23:05.390Z,84.80
2019-05-21T03:25:33.708Z,84.94
2019-05-21T03:28:02.847Z,85.18
2019-05-21T03:30:31.172Z,84.85
2019-05-21T03:33:00.007Z,84.90
2019-05-21T03:35:28.189Z,84.97
2019-05-21T03:37:56.389Z,85.31
2019-05-21T03:40:24.613Z,85.05
2019-05-21T03:42:52.932Z,84.98
2019-05-21T03:45:21.161Z,84.92
2019-05-21T03:47:49.379Z,84.96
2019-05-21T03:50:17.559Z,84.84
2019-05-21T03:52:45.891Z,84.86
2019-05-21T03:55:14.109Z,84.92
2019-05-21T03:57:42.327Z,85.13
2019-05-21T04:00:11.351Z,84.89
2019-05-21T04:02:39.689Z,84.85
2019-05-21T04:05:08.257Z,84.85
2019-05-21T04:07:36.491Z,84.78
2019-05-21T04:10:07.359Z,84.58
2019-05-21T04:12:35.569Z,84.49
2019-05-21T04:15:04.260Z,84.56
2019-05-21T04:17:34.797Z,84.50
2019-05-21T04:20:05.250Z,84.69
2019-05-21T04:22:33.475Z,84.55
2019-05-21T04:25:03.261Z,84.53
2019-05-21T04:27:31.495Z,84.66
2019-05-21T04:29:59.713Z,84.74
2019-05-21T04:32:27.960Z,84.58
2019-05-21T04:34:56.274Z,84.75
2019-05-21T04:37:24.520Z,84.73
2019-05-21T04:39:52.791Z,84.76
2019-05-21T04:42:20.988Z,84.76
2019-05-21T04:44:49.279Z,84.78
2019-05-21T04:47:17.541Z,84.69
2019-05-21T04:49:45.773Z,84.68
2019-05-21T04:52:14.004Z,84.57
2019-05-21T04:54:42.247Z,84.66
2019-05-21T04:57:10.521Z,84.74
2019-05-21T04:59:38.788Z,84.84
2019-05-21T05:02:07.044Z,84.76
2019-05-21T05:04:35.294Z,84.62
2019-05-21T05:07:04.001Z,84.56
2019-05-21T05:09:32.196Z,84.49
2019-05-21T05:12:00.434Z,84.54
2019-05-21T05:14:28.635Z,84.73
2019-05-21T05:16:56.838Z,84.70
2019-05-21T05:19:25.086Z,84.69
2019-05-21T05:21:53.437Z,84.71
2019-05-21T05:24:21.631Z,84.67
2019-05-21T05:26:49.881Z,84.42
2019-05-21T05:29:18.067Z,84.37
2019-05-21T05:31:46.247Z,84.24
2019-05-21T05:34:14.537Z,84.18
2019-05-21T05:36:42.743Z,84.28
2019-05-21T05:39:10.942Z,84.34
2019-05-21T05:41:39.283Z,84.33
2019-05-21T05:44:07.504Z,84.36
2019-05-21T05:46:35.726Z,84.34
2019-05-21T05:49:03.922Z,84.19
2019-05-21T05:51:32.160Z,84.14
2019-05-21T05:54:00.375Z,84.20
2019-05-21T05:56:29.368Z,84.14
2019-05-21T05:58:57.752Z,84.14
2019-05-21T06:01:26.094Z,84.12
2019-05-21T06:03:54.303Z,84.03
2019-05-21T06:06:22.513Z,83.83
2019-05-21T06:08:50.715Z,83.62
2019-05-21T06:11:18.918Z,83.55
2019-05-21T06:13:47.256Z,83.30
2019-05-21T06:16:15.478Z,83.31
2019-05-21T06:18:43.677Z,83.21
2019-05-21T06:21:11.975Z,82.99
2019-05-21T06:23:40.234Z,82.90
2019-05-21T06:26:08.403Z,82.87
2019-05-21T06:28:36.610Z,82.83
2019-05-21T06:31:04.867Z,82.81
2019-05-21T06:33:33.074Z,82.73
2019-05-21T06:36:03.977Z,82.65
2019-05-21T06:38:32.093Z,82.62
2019-05-21T06:41:00.258Z,82.42
2019-05-21T06:43:28.401Z,82.00
2019-05-21T06:45:56.608Z,82.06
2019-05-21T06:48:24.768Z,82.06
2019-05-21T06:50:52.961Z,81.68
2019-05-21T06:53:21.040Z,81.71
2019-05-21T06:55:49.228Z,81.29
2019-05-21T06:58:17.383Z,81.16
2019-05-21T07:00:45.501Z,81.03
2019-05-21T07:03:13.662Z,81.03
2019-05-21T07:05:57.745Z,80.86
2019-05-21T07:08:11.612Z,80.68
2019-05-21T07:10:39.789Z,80.45
2019-05-21T07:13:07.987Z,80.24
2019-05-21T07:15:36.193Z,80.13
2019-05-21T07:18:04.316Z,79.86
2019-05-21T07:20:32.504Z,79.67
2019-05-21T07:23:00.870Z,79.48
2019-05-21T07:25:29.033Z,79.21
2019-05-21T07:27:57.206Z,79.13
2019-05-21T07:30:25.345Z,79.14
2019-05-21T07:32:53.521Z,78.89
2019-05-21T07:35:21.589Z,78.58
2019-05-21T07:37:49.737Z,78.51
2019-05-21T07:40:18.056Z,78.46
2019-05-21T07:42:46.171Z,78.60
2019-05-21T07:45:14.591Z,78.59
2019-05-21T07:47:42.710Z,78.27
2019-05-21T07:50:11.813Z,78.23
2019-05-21T07:52:39.963Z,77.94
2019-05-21T07:55:08.169Z,77.82
2019-05-21T07:57:36.450Z,77.62
2019-05-21T08:00:06.881Z,77.34
2019-05-21T08:02:35.039Z,77.26
2019-05-21T08:05:03.724Z,77.11
2019-05-21T08:07:31.925Z,77.08
2019-05-21T08:10:00.056Z,76.85
2019-05-21T08:12:39.095Z,76.91
2019-05-21T08:14:58.142Z,76.76
2019-05-21T08:17:26.420Z,76.70
2019-05-21T08:19:54.583Z,76.58
2019-05-21T08:22:22.709Z,75.91
2019-05-21T08:24:50.857Z,75.91
2019-05-21T08:27:19.009Z,75.79
2019-05-21T08:29:47.196Z,75.77
2019-05-21T08:32:15.319Z,75.64
2019-05-21T08:34:44.713Z,75.47
2019-05-21T08:37:12.810Z,75.42
2019-05-21T08:39:40.957Z,75.28
2019-05-21T08:42:09.103Z,75.30
2019-05-21T08:44:37.228Z,74.91
2019-05-21T08:47:05.448Z,74.78
2019-05-21T08:49:33.541Z,74.62
2019-05-21T08:52:05.459Z,74.51
2019-05-21T08:54:33.590Z,74.27
2019-05-21T08:57:01.711Z,74.40
2019-05-21T08:59:29.804Z,74.52
2019-05-21T09:01:59.071Z,74.03
2019-05-21T09:04:45.431Z,73.59
2019-05-21T09:06:57.425Z,73.68
2019-05-21T09:09:25.546Z,74.01
2019-05-21T09:11:53.681Z,74.15
2019-05-21T09:14:21.980Z,74.36
2019-05-21T09:16:50.151Z,74.43
2019-05-21T09:19:18.322Z,74.31
2019-05-21T09:21:46.460Z,74.25
2019-05-21T09:24:14.642Z,74.31
2019-05-21T09:26:43.503Z,74.23
2019-05-21T09:29:11.641Z,74.21
2019-05-21T09:31:39.752Z,74.30
2019-05-21T09:34:07.878Z,73.99
2019-05-21T09:36:36.119Z,73.85
2019-05-21T09:39:05.717Z,73.72
2019-05-21T09:41:33.851Z,73.45
2019-05-21T09:44:02.008Z,73.07
2019-05-21T09:46:30.147Z,73.12
2019-05-21T09:48:58.243Z,72.84
2019-05-21T09:51:26.500Z,72.50
2019-05-21T09:53:54.781Z,72.55
2019-05-21T09:56:23.013Z,72.35
2019-05-21T09:58:51.268Z,72.14
2019-05-21T10:01:19.438Z,72.25
2019-05-21T10:03:47.571Z,72.13
2019-05-21T10:06:15.662Z,72.19
2019-05-21T10:08:43.818Z,72.09
2019-05-21T10:11:11.956Z,72.24
2019-05-21T10:13:40.088Z,72.41
2019-05-21T10:16:08.211Z,72.60
2019-05-21T10:18:36.323Z,72.78
2019-05-21T10:21:05.615Z,72.69
2019-05-21T10:23:33.795Z,72.76
2019-05-21T10:26:03.707Z,73.03
2019-05-21T10:28:31.847Z,73.07
2019-05-21T10:31:00.743Z,73.11
2019-05-21T10:33:28.901Z,73.30
2019-05-21T10:35:57.045Z,73.24
2019-05-21T10:38:25.683Z,73.23
2019-05-21T10:40:53.860Z,73.19
2019-05-21T10:43:21.967Z,73.21
2019-05-21T10:45:50.244Z,73.20
2019-05-21T10:48:18.378Z,73.13
2019-05-21T10:50:46.509Z,72.97
2019-05-21T10:53:14.695Z,72.71
2019-05-21T10:55:42.854Z,72.32
2019-05-21T10:58:10.975Z,72.57
2019-05-21T11:00:39.370Z,72.74
2019-05-21T11:03:07.604Z,72.80
2019-05-21T11:05:35.759Z,73.09
2019-05-21T11:08:23.045Z,73.17
2019-05-21T11:10:34.792Z,73.26
2019-05-21T11:13:02.948Z,73.06
2019-05-21T11:15:31.126Z,73.04
2019-05-21T11:18:10.528Z,72.95
2019-05-21T11:20:29.141Z,72.89
2019-05-21T11:22:58.383Z,72.95
2019-05-21T11:25:26.783Z,72.99
2019-05-21T11:27:54.931Z,72.82
2019-05-21T11:30:23.037Z,72.71
2019-05-21T11:32:51.220Z,72.76
2019-05-21T11:35:20.498Z,72.86
2019-05-21T11:37:48.619Z,72.58
2019-05-21T11:40:17.652Z,72.37
2019-05-21T11:42:45.779Z,71.97
2019-05-21T11:45:30.709Z,71.82
2019-05-21T11:47:43.996Z,71.72
2019-05-21T11:50:12.512Z,71.43
2019-05-21T11:52:40.673Z,71.29
2019-05-21T11:55:08.906Z,70.76
2019-05-21T11:57:37.033Z,70.67
2019-05-21T12:00:05.802Z,69.76
2019-05-21T12:02:33.958Z,70.19
2019-05-21T12:05:02.069Z,70.14
2019-05-21T12:07:30.227Z,70.29
2019-05-21T12:09:59.092Z,70.26
2019-05-21T12:12:27.336Z,69.74
2019-05-21T12:14:55.538Z,69.59
2019-05-21T12:17:23.693Z,69.38
2019-05-21T12:19:51.967Z,69.42
2019-05-21T12:22:20.139Z,69.39
2019-05-21T12:24:48.298Z,69.35
2019-05-21T12:27:16.510Z,69.36
2019-05-21T12:29:44.628Z,69.52
2019-05-21T12:32:12.774Z,69.92
2019-05-21T12:34:40.933Z,70.03
2019-05-21T12:37:09.050Z,70.03
2019-05-21T12:39:37.200Z,69.94
2019-05-21T12:42:05.455Z,70.01
2019-05-21T12:44:33.590Z,69.93
2019-05-21T12:47:01.730Z,69.91
2019-05-21T12:49:29.864Z,69.68
2019-05-21T12:51:58.011Z,69.65
2019-05-21T12:54:26.158Z,69.83
2019-05-21T12:56:54.345Z,69.93
2019-05-21T12:59:22.495Z,69.75
2019-05-21T13:01:50.619Z,69.58
2019-05-21T13:04:18.770Z,69.40
2019-05-21T13:06:46.929Z,69.06
2019-05-21T13:09:31.337Z,68.75
2019-05-21T13:11:44.977Z,68.52
2019-05-21T13:14:16.315Z,68.54
2019-05-21T13:16:43.013Z,68.69
2019-05-21T13:19:11.465Z,68.68
2019-05-21T13:21:39.674Z,68.73
2019-05-21T13:24:07.844Z,68.59
2019-05-21T13:26:36.699Z,68.42
2019-05-21T13:29:04.935Z,68.35
2019-05-21T13:31:33.783Z,67.83
2019-05-21T13:34:01.920Z,67.88
2019-05-21T13:36:30.062Z,67.66
2019-05-21T13:38:58.191Z,67.53
2019-05-21T13:41:26.340Z,67.50
2019-05-21T13:43:54.483Z,67.15
2019-05-21T13:46:22.704Z,66.75
2019-05-21T13:48:50.866Z,66.81
2019-05-21T13:51:18.998Z,66.52
2019-05-21T13:53:47.136Z,66.61
2019-05-21T13:56:15.384Z,66.92
2019-05-21T13:58:43.490Z,67.07
2019-05-21T14:01:15.719Z,66.92
2019-05-21T14:03:42.186Z,66.68
2019-05-21T14:06:10.364Z,66.61
2019-05-21T14:08:38.502Z,66.47
2019-05-21T14:11:06.645Z,66.21
2019-05-21T14:13:34.870Z,65.90
2019-05-21T14:16:02.991Z,65.84
2019-05-21T14:18:31.122Z,65.67
2019-05-21T14:20:59.274Z,65.58
2019-05-21T14:23:27.407Z,65.71
2019-05-21T14:25:55.625Z,65.84
2019-05-21T14:28:23.830Z,65.62
2019-05-21T14:30:52.258Z,65.53
2019-05-21T14:33:20.404Z,65.38
2019-05-21T14:35:51.313Z,65.37
2019-05-21T14:38:19.520Z,65.34
2019-05-21T14:40:47.664Z,65.20
2019-05-21T14:43:16.419Z,65.14
2019-05-21T14:45:44.569Z,64.95
2019-05-21T14:48:12.783Z,64.76
2019-05-21T14:50:40.921Z,64.94
2019-05-21T14:53:09.133Z,65.10
2019-05-21T14:55:37.246Z,64.92
2019-05-21T14:58:06.512Z,64.77
2019-05-21T15:00:34.726Z,64.89
2019-05-21T15:03:03.631Z,65.12
2019-05-21T15:05:32.323Z,65.29
2019-05-21T15:08:00.456Z,65.38
2019-05-21T15:10:28.641Z,65.42
2019-05-21T15:12:56.856Z,65.75
2019-05-21T15:15:25.013Z,65.78
2019-05-21T15:17:53.183Z,66.10
2019-05-21T15:20:21.532Z,66.30
2019-05-21T15:22:49.640Z,66.35
2019-05-21T15:25:17.812Z,66.48
2019-05-21T15:27:45.945Z,66.42
2019-05-21T15:30:14.071Z,66.61
2019-05-21T15:32:42.222Z,66.62
2019-05-21T15:35:10.378Z,66.70
2019-05-21T15:37:38.866Z,66.90
2019-05-21T15:40:07.965Z,67.28
2019-05-21T15:42:36.095Z,67.64
2019-05-21T15:45:06.616Z,67.62
2019-05-21T15:47:33.835Z,67.42
2019-05-21T15:50:01.991Z,66.71
2019-05-21T15:52:30.254Z,66.94
2019-05-21T15:54:58.435Z,66.70
2019-05-21T15:57:26.590Z,66.44
2019-05-21T15:59:54.813Z,66.39
2019-05-21T16:02:23.004Z,66.11
2019-05-21T16:04:51.172Z,66.11
2019-05-21T16:07:19.294Z,66.10
2019-05-21T16:09:47.432Z,66.02
2019-05-21T16:12:15.633Z,66.16
2019-05-21T16:14:43.766Z,66.33
2019-05-21T16:17:12.789Z,66.55
2019-05-21T16:19:40.972Z,66.71
2019-05-21T16:22:09.126Z,66.90
2019-05-21T16:24:37.673Z,66.99
2019-05-21T16:27:05.805Z,67.08
2019-05-21T16:29:33.922Z,67.16
2019-05-21T16:32:03.467Z,67.13
2019-05-21T16:34:32.178Z,67.38
2019-05-21T16:37:00.414Z,67.48
2019-05-21T16:39:29.857Z,67.74
2019-05-21T16:41:58.019Z,67.97
2019-05-21T16:44:26.249Z,68.57
2019-05-21T16:46:57.483Z,68.83
2019-05-21T16:49:25.735Z,69.21
2019-05-21T16:51:53.945Z,69.74
2019-05-21T16:54:22.235Z,69.77
2019-05-21T16:56:50.396Z,70.01
2019-05-21T16:59:18.552Z,70.49
2019-05-21T17:01:46.690Z,70.70
2019-05-21T17:04:14.809Z,70.82
2019-05-21T17:06:42.975Z,71.15
2019-05-21T17:09:12.970Z,71.31
2019-05-21T17:11:41.085Z,71.39
2019-05-21T17:14:09.223Z,72.05
2019-05-21T17:16:37.399Z,72.00
2019-05-21T17:19:05.622Z,72.36
2019-05-21T17:21:33.750Z,72.61
2019-05-21T17:24:03.409Z,72.91
2019-05-21T17:26:31.553Z,72.77
2019-05-21T17:28:59.703Z,73.03
2019-05-21T17:31:27.865Z,73.01
2019-05-21T17:33:56.032Z,73.58
2019-05-21T17:36:24.188Z,73.39
2019-05-21T17:38:52.343Z,73.36
2019-05-21T17:41:20.513Z,73.50
2019-05-21T17:43:48.632Z,74.02
2019-05-21T17:46:16.969Z,74.25
2019-05-21T17:48:45.094Z,74.26
2019-05-21T17:51:13.400Z,74.53
2019-05-21T17:53:41.579Z,74.49
2019-05-21T17:56:09.687Z,74.75
2019-05-21T17:58:37.881Z,74.97
2019-05-21T18:01:06.005Z,75.07
2019-05-21T18:03:34.143Z,75.07
2019-05-21T18:06:05.234Z,75.63
2019-05-21T18:08:33.382Z,75.38
2019-05-21T18:11:01.765Z,75.47
2019-05-21T18:13:29.982Z,75.49
2019-05-21T18:15:58.230Z,75.82
2019-05-21T18:18:26.498Z,75.75
2019-05-21T18:20:54.676Z,75.65
2019-05-21T18:23:22.825Z,75.68
2019-05-21T18:25:50.979Z,75.76
2019-05-21T18:28:19.141Z,75.91
2019-05-21T18:30:47.274Z,76.14
2019-05-21T18:33:15.510Z,76.05
2019-05-21T18:35:45.444Z,76.27
2019-05-21T18:38:13.707Z,76.13
2019-05-21T18:40:41.979Z,75.93
2019-05-21T18:43:10.108Z,76.34
2019-05-21T18:45:38.434Z,76.06
2019-05-21T18:48:06.572Z,75.76
2019-05-21T18:50:36.563Z,75.65
2019-05-21T18:53:04.638Z,75.57
2019-05-21T18:55:32.912Z,75.21
2019-05-21T18:58:02.294Z,74.98
2019-05-21T19:00:30.764Z,74.88
2019-05-21T19:02:58.913Z,74.88
2019-05-21T19:05:27.082Z,74.83
2019-05-21T19:07:55.357Z,74.92
2019-05-21T19:10:23.550Z,75.01
2019-05-21T19:12:51.878Z,74.96
2019-05-21T19:15:20.044Z,74.93
2019-05-21T19:17:48.228Z,74.80
2019-05-21T19:20:17.099Z,74.87
2019-05-21T19:22:45.233Z,75.01
2019-05-21T19:25:13.505Z,74.91
2019-05-21T19:27:41.613Z,74.98
2019-05-21T19:30:10.244Z,75.10
2019-05-21T19:32:38.428Z,74.89
2019-05-21T19:35:08.294Z,74.88
2019-05-21T19:37:36.438Z,74.98
2019-05-21T19:40:07.111Z,74.96
2019-05-21T19:42:35.222Z,75.04
2019-05-21T19:45:04.223Z,75.14
2019-05-21T19:47:32.390Z,75.21
2019-05-21T19:50:00.528Z,75.41
2019-05-21T19:52:28.645Z,75.38
2019-05-21T19:54:56.946Z,75.61
2019-05-21T19:57:25.161Z,75.62
2019-05-21T19:59:53.399Z,75.76
2019-05-21T20:02:21.563Z,75.80
2019-05-21T20:04:49.818Z,75.97
2019-05-21T20:07:17.972Z,75.88
2019-05-21T20:09:46.121Z,75.88
2019-05-21T20:12:14.367Z,75.96
2019-05-21T20:14:42.529Z,75.95
2019-05-21T20:17:11.133Z,75.93
2019-05-21T20:19:40.056Z,75.94
2019-05-21T20:22:08.501Z,75.97
2019-05-21T20:24:36.632Z,75.97
2019-05-21T20:27:05.510Z,76.00
2019-05-21T20:29:34.258Z,75.98
2019-05-21T20:32:03.942Z,76.03
2019-05-21T20:34:32.105Z,76.00
2019-05-21T20:37:19.055Z,76.05
2019-05-21T20:39:39.966Z,76.08
2019-05-21T20:42:12.103Z,76.08
2019-05-21T20:44:40.243Z,76.23
2019-05-21T20:47:08.788Z,76.18
2019-05-21T20:49:40.351Z,76.27
2019-05-21T20:52:18.484Z,76.24
2019-05-21T20:54:47.011Z,76.34
2019-05-21T20:57:15.251Z,76.33
2019-05-21T20:59:43.520Z,76.42
2019-05-21T21:02:13.503Z,76.48
2019-05-21T21:04:43.064Z,76.43
2019-05-21T21:07:11.227Z,76.42
2019-05-21T21:09:41.394Z,76.26
2019-05-21T21:12:10.156Z,76.27
2019-05-21T21:14:39.180Z,76.35
2019-05-21T21:17:10.200Z,76.70
2019-05-21T21:19:38.809Z,76.53
2019-05-21T21:22:07.007Z,76.69
2019-05-21T21:24:35.327Z,76.78
2019-05-21T21:27:04.526Z,76.76
2019-05-21T21:29:32.663Z,76.74
2019-05-21T21:32:00.895Z,76.88
2019-05-21T21:34:29.022Z,77.04
2019-05-21T21:36:57.224Z,76.83
2019-05-21T21:39:25.653Z,76.89
2019-05-21T21:41:53.926Z,77.04
2019-05-21T21:44:33.660Z,77.27
2019-05-21T21:46:52.278Z,77.23
2019-05-21T21:49:20.439Z,77.18
2019-05-21T21:51:48.703Z,77.34
2019-05-21T21:54:17.012Z,77.45
2019-05-21T21:56:45.175Z,77.41
2019-05-21T21:59:13.321Z,77.28
2019-05-21T22:01:51.535Z,77.37
2019-05-21T22:04:23.037Z,77.61
2019-05-21T22:06:51.295Z,77.40
2019-05-21T22:09:19.643Z,77.55
2019-05-21T22:11:47.775Z,77.57
2019-05-21T22:14:15.971Z,77.62
2019-05-21T22:16:45.026Z,77.56
2019-05-21T22:19:13.380Z,77.68
2019-05-21T22:21:41.518Z,77.66
2019-05-21T22:24:09.625Z,77.72
2019-05-21T22:26:37.757Z,77.66
2019-05-21T22:29:05.930Z,77.61
2019-05-21T22:31:34.081Z,77.57
2019-05-21T22:34:03.692Z,77.61
2019-05-21T22:36:31.811Z,77.52
2019-05-21T22:38:59.925Z,77.56
2019-05-21T22:41:28.069Z,77.43
2019-05-21T22:43:56.343Z,77.41
2019-05-21T22:46:24.677Z,77.34
2019-05-21T22:48:53.041Z,77.25
2019-05-21T22:51:21.164Z,77.25
2019-05-21T22:53:49.303Z,77.20
2019-05-21T22:56:17.429Z,77.21
2019-05-21T22:58:45.558Z,77.18
2019-05-21T23:01:14.172Z,77.15
2019-05-21T23:03:42.335Z,77.19
2019-05-21T23:06:10.629Z,77.39
2019-05-21T23:08:38.746Z,77.50
2019-05-21T23:11:07.008Z,77.61
2019-05-21T23:13:35.177Z,77.67
2019-05-21T23:16:03.584Z,77.75
2019-05-21T23:18:31.759Z,77.82
2019-05-21T23:20:59.870Z,77.70
2019-05-21T23:23:28.145Z,77.61
2019-05-21T23:25:57.504Z,77.91
2019-05-21T23:28:25.789Z,77.84
2019-05-21T23:30:54.026Z,77.93
2019-05-21T23:33:22.235Z,77.88
2019-05-21T23:35:50.446Z,77.90
2019-05-21T23:38:19.193Z,77.78
2019-05-21T23:40:48.637Z,77.72
2019-05-21T23:43:17.246Z,77.73
2019-05-21T23:45:45.580Z,77.59
2019-05-21T23:48:14.606Z,77.53
2019-05-21T23:50:43.434Z,77.49
2019-05-21T23:53:11.552Z,77.48
2019-05-21T23:55:39.678Z,77.64
2019-05-21T23:58:07.806Z,77.64
